ESGJ/JKG METAR and TAF weather

Enter ICAO airport designator
Station Type Date Time Source
ESGJ METAR 2019/10/16 19:20 UTC NOAA

ESGJ 161920Z 03005KT 9999 BKN002 10/10 Q1004


Station Type Date Time Source
ESGJ Decoded METAR 2019/10/16 19:20 UTC NOAA

Jonkoping Flygplats, Sweden (ESGJ) 57-46N 014-05E 232M
Oct 16, 2019 - 03:20 PM EDT / 2019.10.16 1920 UTC
Wind: from the NNE (030 degrees) at 6 MPH (5 KT):0
Visibility: greater than 7 mile(s):0
Sky conditions: mostly cloudy
Temperature: 50 F (10 C)
Dew Point: 50 F (10 C)
Relative Humidity: 100%
Pressure (altimeter): 29.65 in. Hg (1004 hPa)
ob: ESGJ 161920Z 03005KT 9999 BKN002 10/10 Q1004
cycle: 19

Station Type Date Time Source
ESGJ TAF 2015/05/01 23:06 UTC NOAA

TAF TAF ESGJ 302359Z 3023/0101 CNL

Example: see airport list